Miftah — CNA4501 — position and weather

sailwx.info

Track history (hours):
 
Tides and Currents Weather Stations Pressure Air Temp Water Temp Dewpoint Dewpoint Depression Visibility Wind Speed Wind Dir Waves Ship Positions

Miftah

Last reported at 2017-Dec-18 00:18 UTC. Time now 2018-May-25 06:50 UTC.
Position N 27°46' W 015°20'.
Warning: this ship's position is months out of date.

Length 42 m; draft 4.8 m.

Type: Fishing. MMSI: 242147100.

Date/timePositionNaut miles runAvg speedWind from/ knotsBaromVisibWave heightAir tempDewpointWater temp
2017-Dec-18 00:18N 27°46' W 015°20'3 8.3
2017-Dec-18 00:00N 27°48' W 015°20'3 5.2
2017-Dec-17 23:30N 27°51' W 015°20'3 5.3
2017-Dec-17 23:00N 27°53' W 015°20'3 5.3
2017-Dec-17 22:30N 27°56' W 015°20'3 5.7
2017-Dec-17 22:00N 27°59' W 015°20'3 5.7
2017-Dec-17 21:30N 28°02' W 015°20'3 5.8
2017-Dec-17 21:00N 28°04' W 015°21'2 5.0
2017-Dec-17 20:30N 28°07' W 015°21'3 6.8
2017-Dec-17 20:00N 28°07' W 015°25'1 2.6
2017-Dec-17 19:30N 28°09' W 015°25'0 0.0
2017-Dec-17 19:00N 28°09' W 015°25'0 0.0
2017-Dec-17 18:30N 28°09' W 015°25'0 0.0
2017-Dec-17 18:00N 28°09' W 015°25'0 0.0
2017-Dec-17 17:30N 28°09' W 015°25'0 0.0
2017-Dec-17 17:00N 28°09' W 015°25'0 0.0
2017-Dec-17 16:30N 28°09' W 015°25'0 0.0
2017-Dec-17 16:00N 28°09' W 015°25'0 0.0
2017-Dec-17 15:30N 28°09' W 015°25'0 0.0
2017-Dec-17 15:00N 28°09' W 015°25'0 0.8
2017-Dec-17 14:30N 28°09' W 015°26'2 4.6
2017-Dec-17 14:00N 28°07' W 015°24'2 4.7
2017-Dec-17 13:30N 28°05' W 015°23'0 0.3
2017-Dec-17 13:00N 28°04' W 015°24'0 0.2
2017-Dec-17 12:30N 28°04' W 015°24'0 0.3
2017-Dec-17 12:00N 28°05' W 015°24'0 0.8
2017-Dec-17 11:30N 28°05' W 015°23'1 2.5
2017-Dec-17 11:00N 28°06' W 015°24'0 0.5
2017-Dec-17 10:30N 28°06' W 015°24'0 0.7
2017-Dec-17 10:00N 28°06' W 015°24'1 1.1
2017-Dec-17 09:30N 28°07' W 015°24'1 2.4
2017-Dec-17 09:00N 28°07' W 015°23'1 1.6
2017-Dec-17 08:30N 28°06' W 015°22'1 1.5
2017-Dec-17 08:00N 28°05' W 015°22'1 2.6
2017-Dec-17 07:30N 28°07' W 015°22'1 2.7
2017-Dec-17 07:00N 28°08' W 015°22'1 2.3
2017-Dec-17 06:30N 28°09' W 015°22'1 2.2
2017-Dec-17 06:00N 28°10' W 015°22'1 2.5
2017-Dec-17 05:30N 28°11' W 015°21'1 1.8
2017-Dec-17 05:00N 28°11' W 015°20'1 1.2
2017-Dec-17 04:30N 28°10' W 015°20'1 1.3
2017-Dec-17 04:00N 28°10' W 015°20'1 1.2
2017-Dec-17 03:30N 28°09' W 015°21'1 1.2
2017-Dec-17 03:00N 28°08' W 015°21'1 1.3
2017-Dec-17 02:30N 28°08' W 015°21'1 1.5
2017-Dec-17 02:00N 28°07' W 015°21'1 2.1
2017-Dec-17 01:30N 28°06' W 015°21'2 3.8
2017-Dec-17 01:00N 28°05' W 015°19'2 3.7
2017-Dec-17 00:30N 28°04' W 015°17'2 3.9
2017-Dec-17 00:00N 28°03' W 015°15'2 4.1
2017-Dec-16 23:30N 28°01' W 015°14'2 4.1
2017-Dec-16 23:00N 27°60' W 015°12'2 4.3
2017-Dec-16 22:30N 27°58' W 015°12'2 4.3
2017-Dec-16 22:00N 27°55' W 015°12'2 4.3
2017-Dec-16 21:30N 27°53' W 015°12'2 4.2
2017-Dec-16 21:00N 27°51' W 015°12'2 4.1
2017-Dec-16 20:30N 27°49' W 015°12'2 4.2
2017-Dec-16 20:00N 27°47' W 015°13'2 4.2
2017-Dec-16 19:30N 27°45' W 015°13'3 4.1
2017-Dec-16 18:52N 27°42' W 015°13'2 3.9
2017-Dec-16 18:27N 27°41' W 015°13'  
Track history (hours):
 
Tides and Currents Weather Stations Pressure Air Temp Water Temp Dewpoint Dewpoint Depression Visibility Wind Speed Wind Dir Waves Ship Positions

Miftah

Last reported at 2017-Dec-18 00:18 UTC. Time now 2018-May-25 06:50 UTC.
Position N 27°46' W 015°20'.
Warning: this ship's position is months out of date.

Length 42 m; draft 4.8 m.

Type: Fishing. MMSI: 242147100.

Date/timePositionNaut miles runAvg speedWind from/ knotsBaromVisibWave heightAir tempDewpointWater temp
2017-Dec-18 00:18N 27°46' W 015°20'3 8.3
2017-Dec-18 00:00N 27°48' W 015°20'3 5.2
2017-Dec-17 23:30N 27°51' W 015°20'3 5.3
2017-Dec-17 23:00N 27°53' W 015°20'3 5.3
2017-Dec-17 22:30N 27°56' W 015°20'3 5.7
2017-Dec-17 22:00N 27°59' W 015°20'3 5.7
2017-Dec-17 21:30N 28°02' W 015°20'3 5.8
2017-Dec-17 21:00N 28°04' W 015°21'2 5.0
2017-Dec-17 20:30N 28°07' W 015°21'3 6.8
2017-Dec-17 20:00N 28°07' W 015°25'1 2.6
2017-Dec-17 19:30N 28°09' W 015°25'0 0.0
2017-Dec-17 19:00N 28°09' W 015°25'0 0.0
2017-Dec-17 18:30N 28°09' W 015°25'0 0.0
2017-Dec-17 18:00N 28°09' W 015°25'0 0.0
2017-Dec-17 17:30N 28°09' W 015°25'0 0.0
2017-Dec-17 17:00N 28°09' W 015°25'0 0.0
2017-Dec-17 16:30N 28°09' W 015°25'0 0.0
2017-Dec-17 16:00N 28°09' W 015°25'0 0.0
2017-Dec-17 15:30N 28°09' W 015°25'0 0.0
2017-Dec-17 15:00N 28°09' W 015°25'0 0.8
2017-Dec-17 14:30N 28°09' W 015°26'2 4.6
2017-Dec-17 14:00N 28°07' W 015°24'2 4.7
2017-Dec-17 13:30N 28°05' W 015°23'0 0.3
2017-Dec-17 13:00N 28°04' W 015°24'0 0.2
2017-Dec-17 12:30N 28°04' W 015°24'0 0.3
2017-Dec-17 12:00N 28°05' W 015°24'0 0.8
2017-Dec-17 11:30N 28°05' W 015°23'1 2.5
2017-Dec-17 11:00N 28°06' W 015°24'0 0.5
2017-Dec-17 10:30N 28°06' W 015°24'0 0.7
2017-Dec-17 10:00N 28°06' W 015°24'1 1.1
2017-Dec-17 09:30N 28°07' W 015°24'1 2.4
2017-Dec-17 09:00N 28°07' W 015°23'1 1.6
2017-Dec-17 08:30N 28°06' W 015°22'1 1.5
2017-Dec-17 08:00N 28°05' W 015°22'1 2.6
2017-Dec-17 07:30N 28°07' W 015°22'1 2.7
2017-Dec-17 07:00N 28°08' W 015°22'1 2.3
2017-Dec-17 06:30N 28°09' W 015°22'1 2.2
2017-Dec-17 06:00N 28°10' W 015°22'1 2.5
2017-Dec-17 05:30N 28°11' W 015°21'1 1.8
2017-Dec-17 05:00N 28°11' W 015°20'1 1.2
2017-Dec-17 04:30N 28°10' W 015°20'1 1.3
2017-Dec-17 04:00N 28°10' W 015°20'1 1.2
2017-Dec-17 03:30N 28°09' W 015°21'1 1.2
2017-Dec-17 03:00N 28°08' W 015°21'1 1.3
2017-Dec-17 02:30N 28°08' W 015°21'1 1.5
2017-Dec-17 02:00N 28°07' W 015°21'1 2.1
2017-Dec-17 01:30N 28°06' W 015°21'2 3.8
2017-Dec-17 01:00N 28°05' W 015°19'2 3.7
2017-Dec-17 00:30N 28°04' W 015°17'2 3.9
2017-Dec-17 00:00N 28°03' W 015°15'2 4.1
2017-Dec-16 23:30N 28°01' W 015°14'2 4.1
2017-Dec-16 23:00N 27°60' W 015°12'2 4.3
2017-Dec-16 22:30N 27°58' W 015°12'2 4.3
2017-Dec-16 22:00N 27°55' W 015°12'2 4.3
2017-Dec-16 21:30N 27°53' W 015°12'2 4.2
2017-Dec-16 21:00N 27°51' W 015°12'2 4.1
2017-Dec-16 20:30N 27°49' W 015°12'2 4.2
2017-Dec-16 20:00N 27°47' W 015°13'2 4.2
2017-Dec-16 19:30N 27°45' W 015°13'3 4.1
2017-Dec-16 18:52N 27°42' W 015°13'2 3.9
2017-Dec-16 18:27N 27°41' W 015°13'  

Dump ship's entire track history